Latest Weather Observations for Hamilton

IDV60801

Issued at 8:32 pm EDT Sunday 11 December 2016 (issued every 30 minutes, with the page automatically refreshed every 10 minutes)

About weather observations | Map of weather stations | Latest weather observations for VIC | Other Formats
Station Details ID: 090173 Name: HAMILTON AIRPORT Lat: -37.65 Lon: 142.06 Height: 241.1 m
Data from the previous 72 hours. | See also: Recent months at Hamilton
Date/Time
EDT
Temp
°C
App
Temp
°C
Dew
Point
°C
Rel
Hum
%
Delta-T
°C
Wind Press
QNH
hPa
Press
MSL
hPa
Rain since
9am
mm
Dir  Spd
km/h
Gust
km/h
Spd
kts
Gust
kts
11/08:30pm 14.6 9.9 9.2 70 2.8 SSE 24 32 13 17 1021.8 1021.4 0.0
11/08:00pm 16.8 12.6 9.7 63 3.7 SSE 22 32 12 17 1021.5 1021.0 0.0
11/07:30pm 18.9 14.7 9.7 55 4.9 SSE 22 28 12 15 1021.1 1020.6 0.0
11/07:00pm 20.2 16.8 9.2 49 5.9 SSE 17 24 9 13 1021.0 1020.5 0.0
11/06:30pm 20.8 17.2 8.4 45 6.6 SSE 17 26 9 14 1020.7 1020.2 0.0
11/06:00pm 20.8 17.5 8.1 44 6.7 S 15 22 8 12 1020.8 1020.3 0.0
11/05:30pm 20.9 17.8 7.2 41 7.1 ESE 13 22 7 12 1021.1 1020.6 0.0
11/05:00pm 20.7 18.2 8.0 44 6.6 ESE 11 20 6 11 1021.3 1020.8 0.0
11/04:30pm 20.5 17.1 7.8 44 6.6 ESE 15 24 8 13 1021.5 1021.0 0.0
11/04:00pm 20.6 17.6 7.9 44 6.6 S 13 24 7 13 1021.7 1021.2 0.0
11/03:30pm 19.8 17.1 7.2 44 6.5 ESE 11 19 6 10 1022.2 1021.8 0.0
11/03:00pm 19.5 16.0 7.3 45 6.3 SE 15 24 8 13 1022.5 1022.1 0.0
11/02:30pm 19.7 16.7 7.8 46 6.2 SE 13 24 7 13 1022.9 1022.5 0.0
11/02:00pm 18.3 14.5 7.7 50 5.4 SE 17 24 9 13 1023.4 1023.0 0.0
11/01:30pm 18.1 14.0 7.8 51 5.3 SE 19 30 10 16 1023.6 1023.2 0.0
11/01:00pm 17.4 14.2 6.9 50 5.3 E 13 20 7 11 1024.0 1023.5 0.0
11/12:30pm 17.6 13.6 8.2 54 4.9 SSE 19 28 10 15 1024.1 1023.6 0.0
11/12:00pm 17.6 14.6 7.6 52 5.1 ESE 13 24 7 13 1024.4 1023.9 0.0
11/11:30am 16.8 13.2 6.9 52 5.0 SE 15 30 8 16 1024.5 1024.0 0.0
11/11:00am 14.6 10.6 6.7 59 3.9 SSE 17 24 9 13 1024.6 1024.1 0.0
11/10:30am 14.8 10.4 6.6 58 4.0 ESE 19 26 10 14 1024.8 1024.3 0.0
11/10:00am 15.2 11.5 8.0 62 3.6 SE 17 24 9 13 1024.8 1024.3 0.0
11/09:30am 14.2 9.9 7.0 62 3.6 ESE 19 24 10 13 1024.9 1024.4 0.0
11/09:00am 12.4 8.5 7.3 71 2.5 SE 17 22 9 12 1024.9 1024.4 0.0
11/08:30am 11.7 9.4 10.4 92 0.7 SE 13 17 7 9 1024.6 1024.1 0.0
11/08:00am 10.5 8.4 9.9 96 0.3 SE 11 13 6 7 1024.4 1023.9 0.0
11/07:54am 10.4 8.7 9.8 96 0.3 SE 9 13 5 7 1024.3 1023.8 0.0
11/07:49am 10.3 8.2 9.7 96 0.3 SE 11 13 6 7 1024.3 1023.8 0.0
11/07:30am 9.3 7.3 8.7 96 0.3 SE 9 13 5 7 1024.2 1023.7 0.0
11/07:00am 7.4 5.0 6.8 96 0.3 ESE 9 11 5 6 1023.7 1023.3 0.0
11/06:30am 6.2 3.1 5.5 95 0.3 ESE 11 11 6 6 1023.4 1023.0 0.0
11/06:00am 5.8 2.6 5.1 95 0.3 SE 11 11 6 6 1023.1 1022.7 0.0
11/05:30am 6.8 3.8 6.1 95 0.3 SE 11 11 6 6 1022.9 1022.5 0.0
11/05:00am 6.5 3.8 5.8 95 0.3 SE 9 11 5 6 1022.8 1022.4 0.0
11/04:30am 7.0 4.4 6.3 95 0.3 SSE 9 11 5 6 1022.7 1022.3 0.0
11/04:00am 6.6 3.9 5.7 94 0.4 ESE 9 11 5 6 1022.7 1022.3 0.0
11/03:55am 6.7 4.0 5.8 94 0.4 ESE 9 11 5 6 1022.7 1022.3 0.0
11/03:30am 7.1 4.5 6.0 93 0.5 SE 9 11 5 6 1022.9 1022.5 0.0
11/03:25am 7.1 4.5 6.0 93 0.5 SE 9 11 5 6 1022.9 1022.5 0.0
11/03:00am 8.2 5.8 7.0 92 0.6 SE 9 11 5 6 1023.1 1022.7 0.0
11/02:30am 9.7 7.3 8.6 93 0.5 SSE 11 13 6 7 1023.3 1022.9 0.0
11/02:00am 8.8 6.5 7.4 91 0.7 SSE 9 11 5 6 1023.6 1023.2 0.0
11/01:30am 10.3 8.3 8.7 90 0.8 SSE 9 11 5 6 1023.8 1023.4 0.0
11/01:00am 10.9 9.0 9.2 89 0.9 SSE 9 13 5 7 1024.1 1023.6 0.0
11/12:30am 11.0 9.1 9.1 88 1.0 SE 9 11 5 6 1024.3 1023.8 0.0
11/12:00am 11.2 8.6 9.3 88 1.0 SSE 13 17 7 9 1024.5 1024.0 0.0
 
Date/Time
EDT
Temp
°C
App
Temp
°C
Dew
Point
°C
Rel
Hum
%
Delta-T
°C
Wind Press
QNH
hPa
Press
MSL
hPa
Rain since
9am
mm
Dir  Spd
km/h
Gust
km/h
Spd
kts
Gust
kts
10/11:30pm 11.3 7.9 9.2 87 1.1 SSE 17 19 9 10 1024.5 1024.0 0.0
10/11:00pm 11.4 8.7 9.1 86 1.2 SSE 13 19 7 10 1024.5 1024.0 0.0
10/10:30pm 11.5 8.5 9.2 86 1.2 SSE 15 17 8 9 1024.5 1024.0 0.0
10/10:00pm 11.6 8.2 9.3 86 1.2 SSE 17 20 9 11 1024.5 1024.0 0.0
10/09:30pm 11.8 8.1 9.4 85 1.2 SSE 19 24 10 13 1024.3 1023.8 0.0
10/09:00pm 12.2 9.2 9.4 83 1.4 SSE 15 20 8 11 1024.1 1023.6 0.0
10/08:30pm 12.6 10.0 9.2 80 1.7 SE 13 19 7 10 1023.8 1023.4 0.0
10/08:15pm 12.7 9.7 9.3 80 1.7 SSE 15 20 8 11 1023.7 1023.3 0.0
10/08:00pm 12.8 9.5 9.4 80 1.7 SSE 17 22 9 12 1023.7 1023.3 0.0
10/07:52pm 12.9 9.2 9.5 80 1.8 SSE 19 24 10 13 1023.7 1023.3 0.0
10/07:30pm 13.8 10.9 9.8 77 2.1 S 15 19 8 10 1023.4 1023.0 0.0
10/07:00pm 14.2 11.3 9.6 74 2.4 S 15 22 8 12 1023.3 1022.9 0.0
10/06:30pm 14.5 10.9 9.7 73 2.5 S 19 24 10 13 1023.1 1022.7 0.0
10/06:00pm 14.9 11.4 10.1 73 2.5 S 19 24 10 13 1023.1 1022.7 0.0
10/05:30pm 15.0 10.9 10.0 72 2.6 S 22 28 12 15 1023.2 1022.8 0.0
10/05:00pm 15.7 12.4 9.4 66 3.3 SSE 17 20 9 11 1023.2 1022.8 0.0
10/04:30pm 16.3 13.2 8.8 61 3.9 SW 15 22 8 12 1023.1 1022.7 0.0
10/04:00pm 16.2 12.2 8.2 59 4.1 SW 19 22 10 12 1023.3 1022.9 0.0
10/03:30pm 16.0 12.2 7.5 57 4.3 SW 17 22 9 12 1023.6 1023.2 0.0
10/03:00pm 16.1 12.7 7.8 58 4.2 SW 15 20 8 11 1023.7 1023.3 0.0
10/02:30pm 16.3 13.3 7.8 57 4.3 WSW 13 22 7 12 1024.1 1023.6 0.0
10/02:00pm 15.6 13.1 8.1 61 3.8 S 11 17 6 9 1024.2 1023.7 0.0
10/01:30pm 15.3 13.0 7.6 60 3.9 WNW 9 13 5 7 1024.5 1024.0 0.0
10/01:00pm 15.0 12.5 8.3 64 3.4 SSW 11 19 6 10 1024.6 1024.1 0.0
10/12:30pm 14.2 11.9 7.5 64 3.3 WSW 9 13 5 7 1024.8 1024.3 0.0
10/12:00pm 13.8 11.8 6.9 63 3.4 S 7 13 4 7 1025.0 1024.5 0.0
10/11:30am 13.2 10.8 7.2 67 3.0 W 9 15 5 8 1025.0 1024.5 0.0
10/11:00am 12.4 9.6 6.9 69 2.7 WSW 11 15 6 8 1025.0 1024.5 0.0
10/10:30am 12.3 9.5 6.8 69 2.7 WSW 11 17 6 9 1025.0 1024.5 0.0
10/10:00am 11.9 10.0 6.6 70 2.5 WNW 6 13 3 7 1025.0 1024.5 0.0
10/09:30am 11.1 8.6 6.6 74 2.2 W 9 13 5 7 1025.0 1024.5 0.0
10/09:00am 11.2 8.1 7.1 76 2.0 W 13 17 7 9 1024.7 1024.2 0.0
10/08:30am 10.6 7.8 7.1 79 1.7 WSW 11 15 6 8 1024.6 1024.1 0.0
10/08:00am 10.2 8.3 7.6 84 1.3 SW 7 9 4 5 1024.3 1023.8 0.0
10/07:30am 9.9 8.0 7.5 85 1.2 SW 7 9 4 5 1024.0 1023.5 0.0
10/07:00am 9.5 8.1 7.1 85 1.1 SW 4 7 2 4 1023.5 1023.1 0.0
10/06:30am 9.4 8.0 7.3 87 1.0 SW 4 7 2 4 1023.4 1023.0 0.0
10/06:00am 9.3 7.3 7.1 86 1.0 WNW 7 9 4 5 1023.0 1022.6 0.0
10/05:30am 9.2 7.1 6.8 85 1.1 W 7 9 4 5 1022.7 1022.3 0.0
10/05:00am 9.3 8.6 6.9 85 1.1 CALM 0 0 0 0 1022.6 1022.2 0.0
10/04:30am 9.3 8.6 6.9 85 1.1 CALM 0 0 0 0 1022.3 1021.9 0.0
10/04:00am 9.2 8.5 6.8 85 1.1 CALM 0 0 0 0 1022.6 1022.2 0.0
10/03:30am 9.2 8.4 6.6 84 1.2 CALM 0 0 0 0 1022.6 1022.2 0.0
10/03:00am 9.1 7.2 6.5 84 1.2 SW 6 7 3 4 1022.7 1022.3 0.0
10/02:30am 9.4 7.3 6.7 83 1.3 SSW 7 9 4 5 1022.8 1022.4 0.0
10/02:00am 9.5 7.4 6.6 82 1.4 SSW 7 9 4 5 1023.0 1022.6 0.0
10/01:30am 9.4 7.5 6.8 84 1.2 SW 6 7 3 4 1023.1 1022.7 0.0
10/01:00am 9.4 6.9 6.7 83 1.3 SW 9 9 5 5 1023.1 1022.7 0.0
10/12:30am 9.4 7.3 6.5 82 1.4 SSW 7 9 4 5 1023.2 1022.8 0.0
10/12:00am 9.2 7.3 6.5 83 1.3 SSW 6 7 3 4 1023.4 1023.0 0.0
 
Date/Time
EDT
Temp
°C
App
Temp
°C
Dew
Point
°C
Rel
Hum
%
Delta-T
°C
Wind Press
QNH
hPa
Press
MSL
hPa
Rain since
9am
mm
Dir  Spd
km/h
Gust
km/h
Spd
kts
Gust
kts
09/11:30pm 9.5 7.4 6.6 82 1.4 SSW 7 9 4 5 1023.5 1023.1 0.0
09/11:00pm 9.8 6.9 6.7 81 1.5 S 11 13 6 7 1023.5 1023.1 0.0
09/10:30pm 10.0 7.5 6.7 80 1.6 S 9 11 5 6 1023.5 1023.1 0.0
09/10:00pm 10.3 7.0 6.6 78 1.8 S 13 15 7 8 1023.3 1022.9 0.0
09/09:30pm 10.5 7.3 6.8 78 1.8 S 13 17 7 9 1023.0 1022.6 0.0
09/09:00pm 10.7 7.4 6.6 76 1.9 S 13 19 7 10 1023.0 1022.6 0.0
09/08:30pm 11.0 7.7 6.6 74 2.1 S 13 19 7 10 1022.9 1022.5 0.0
09/08:00pm 11.3 7.7 6.8 74 2.2 S 15 20 8 11 1022.6 1022.2 0.0
09/07:30pm 11.7 7.4 6.8 72 2.4 S 19 22 10 12 1022.3 1021.9 0.0
09/07:00pm 11.7 7.2 6.8 72 2.4 S 20 26 11 14 1021.9 1021.5 0.0
09/06:30pm 11.9 7.5 7.2 73 2.3 S 20 30 11 16 1021.6 1021.1 0.0
09/06:00pm 12.6 7.7 7.1 69 2.7 SSW 22 32 12 17 1021.3 1020.8 0.0
09/05:30pm 13.0 7.6 6.4 64 3.2 SSW 24 30 13 16 1021.3 1020.8 0.0
09/05:00pm 13.9 8.3 5.5 57 4.0 SSW 24 32 13 17 1021.2 1020.7 0.0
09/04:30pm 13.5 8.4 6.1 61 3.6 SW 22 30 12 16 1021.2 1020.7 0.0
09/04:00pm 13.4 7.0 5.1 57 3.9 SSW 28 33 15 18 1021.2 1020.7 0.0
09/03:30pm 14.1 8.9 5.7 57 4.0 SSW 22 30 12 16 1021.0 1020.5 0.0
09/03:00pm 14.6 9.2 6.2 57 4.1 SW 24 28 13 15 1020.9 1020.4 0.0
09/02:30pm 14.3 9.0 5.1 54 4.4 SW 22 32 12 17 1020.9 1020.4 0.0
09/02:00pm 14.2 8.9 5.0 54 4.3 SW 22 35 12 19 1020.8 1020.3 0.0
09/01:30pm 14.0 8.5 4.0 51 4.6 SW 22 32 12 17 1020.6 1020.1 0.0
09/01:00pm 13.7 9.5 5.6 58 3.9 SSW 17 24 9 13 1020.7 1020.2 0.0
09/12:30pm 12.7 7.4 4.9 59 3.6 SSW 22 33 12 18 1020.6 1020.1 0.0
09/12:00pm 12.9 7.6 4.8 58 3.8 SSW 22 30 12 16 1020.4 1019.9 0.0
09/11:30am 12.9 7.2 5.1 59 3.7 SSW 24 33 13 18 1020.2 1019.7 0.0
09/11:00am 11.7 5.2 4.9 63 3.1 SSW 28 37 15 20 1020.1 1019.6 0.0
09/10:30am 12.0 5.6 5.0 62 3.3 SSW 28 35 15 19 1019.6 1019.1 0.0
09/10:00am 11.6 4.5 3.6 58 3.6 SSW 30 44 16 24 1019.2 1018.8 0.0
09/09:30am 11.2 5.2 5.1 66 2.8 SSW 26 41 14 22 1018.9 1018.5 0.0
09/09:00am 11.5 6.0 5.8 68 2.7 SSW 24 32 13 17 1018.4 1018.0 -
09/08:30am 11.1 5.8 6.6 74 2.2 SW 24 33 13 18 1017.8 1017.3 -
09/08:00am 9.7 5.2 6.1 78 1.7 SW 19 24 10 13 1017.2 1016.7 -
09/07:30am 8.4 4.2 5.7 83 1.2 SW 17 20 9 11 1016.9 1016.4 -
09/07:00am 6.8 3.6 5.3 90 0.7 WSW 11 17 6 9 1016.2 1015.7 -
09/06:30am 6.5 2.9 5.0 90 0.7 SW 13 19 7 10 1015.8 1015.3 -
09/06:00am 7.5 3.7 5.6 88 0.9 SSW 15 19 8 10 1015.3 1014.8 -
09/05:30am 7.8 1.8 5.4 85 1.1 SW 26 33 14 18 1014.9 1014.5 -
09/05:00am 7.3 3.1 5.9 91 0.6 SW 17 26 9 14 1014.4 1013.9 -
09/04:30am 7.3 3.8 5.6 89 0.8 WSW 13 17 7 9 1013.8 1013.3 -
09/04:00am 7.4 3.6 5.9 90 0.7 SW 15 22 8 12 1013.6 1013.1 -
09/03:30am 7.1 3.7 5.7 91 0.6 WSW 13 17 7 9 1013.2 1012.7 -
09/03:00am 7.5 3.4 6.1 91 0.6 WSW 17 22 9 12 1013.0 1012.5 0.4
09/02:30am 7.8 3.7 6.1 89 0.8 WSW 17 24 9 13 1013.0 1012.5 -
09/02:00am 8.3 4.3 6.6 89 0.8 WSW 17 22 9 12 1012.8 1012.3 -
09/01:30am 8.5 4.2 7.0 90 0.7 WSW 19 26 10 14 1012.7 1012.2 -
09/01:00am 8.4 3.8 6.5 88 0.9 WSW 20 28 11 15 1012.5 1012.0 -
09/12:30am 8.4 4.7 6.5 88 0.9 WSW 15 20 8 11 1012.4 1011.9 -
09/12:00am 8.8 4.3 6.9 88 0.9 WSW 20 32 11 17 1012.2 1011.7 -
 
Date/Time
EDT
Temp
°C
App
Temp
°C
Dew
Point
°C
Rel
Hum
%
Delta-T
°C
Wind Press
QNH
hPa
Press
MSL
hPa
Rain since
9am
mm
Dir  Spd
km/h
Gust
km/h
Spd
kts
Gust
kts
08/11:30pm 8.6 4.6 6.7 88 0.9 WSW 17 22 9 12 1011.9 1011.4 -
08/11:00pm 9.2 4.7 6.8 85 1.1 WSW 20 24 11 13 1011.5 1011.0 -
08/10:30pm 9.7 5.9 7.6 87 1.0 WSW 17 20 9 11 1011.3 1010.8 -
08/10:00pm 10.0 5.7 7.9 87 1.0 WSW 20 28 11 15 1010.5 1010.0 -
08/09:30pm 10.2 5.6 8.1 87 1.0 WSW 22 32 12 17 1010.0 1009.5 -
08/09:00pm 10.0 5.0 7.9 87 1.0 WSW 24 32 13 17 1009.2 1008.7 4.0

Other Formats:

Comma delimited format used in spreadsheet applications
http://www.bom.gov.au/fwo/IDV60801/IDV60801.94829.axf

JavaScript Object Notation format (JSON) in row-major order
http://www.bom.gov.au/fwo/IDV60801/IDV60801.94829.json